createdAt,value
2019-05-11T00:00:15.503Z,17.80
2019-05-11T00:05:21.779Z,17.32
2019-05-11T00:10:27.751Z,18.37
2019-05-11T00:15:34.645Z,17.77
2019-05-11T00:20:40.478Z,17.87
2019-05-11T00:25:46.394Z,18.20
2019-05-11T00:30:52.451Z,15.90
2019-05-11T00:35:58.527Z,17.95
2019-05-11T00:41:04.494Z,17.12
2019-05-11T00:46:15.811Z,18.45
2019-05-11T00:51:21.774Z,18.20
2019-05-11T00:56:27.849Z,17.57
2019-05-11T01:01:34.944Z,17.95
2019-05-11T01:06:41.041Z,13.53
2019-05-11T01:11:47.186Z,19.32
2019-05-11T01:16:53.970Z,19.98
2019-05-11T01:21:59.845Z,22.00
2019-05-11T01:27:05.810Z,22.17
2019-05-11T01:32:12.809Z,23.90
2019-05-11T01:37:18.775Z,19.73
2019-05-11T01:42:24.756Z,22.37
2019-05-11T01:47:31.815Z,23.50
2019-05-11T01:52:38.019Z,19.98
2019-05-11T01:57:43.897Z,22.62
2019-05-11T02:02:50.172Z,21.30
2019-05-11T02:07:56.245Z,19.60
2019-05-11T02:13:03.224Z,16.62
2019-05-11T02:18:11.054Z,16.35
2019-05-11T02:23:21.632Z,14.83
2019-05-11T02:28:37.136Z,14.43
2019-05-11T02:33:45.249Z,16.37
2019-05-11T02:38:51.140Z,17.52
2019-05-11T02:43:57.097Z,16.67
2019-05-11T02:49:03.167Z,16.60
2019-05-11T02:54:11.907Z,16.75
2019-05-11T02:59:17.977Z,16.15
2019-05-11T03:04:24.069Z,16.12
2019-05-11T03:09:30.020Z,18.15
2019-05-11T03:14:36.981Z,17.62
2019-05-11T03:19:43.700Z,18.90
2019-05-11T03:24:49.775Z,15.48
2019-05-11T03:30:00.289Z,17.85
2019-05-11T03:35:03.465Z,18.32
2019-05-11T03:40:10.011Z,16.97
2019-05-11T03:45:16.328Z,18.80
2019-05-11T03:50:22.398Z,17.82
2019-05-11T03:55:28.363Z,15.28
2019-05-11T04:00:34.339Z,15.95
2019-05-11T04:05:40.346Z,15.58
2019-05-11T04:10:46.343Z,16.32
2019-05-11T04:15:52.458Z,15.45
2019-05-11T04:21:00.165Z,13.10
2019-05-11T04:26:06.461Z,18.45
2019-05-11T04:31:12.520Z,18.80
2019-05-11T04:36:18.529Z,15.05
2019-05-11T04:41:24.565Z,16.97
2019-05-11T04:46:30.532Z,18.75
2019-05-11T04:51:36.518Z,22.62
2019-05-11T04:56:42.686Z,22.13
2019-05-11T05:01:48.769Z,21.17
2019-05-11T05:07:00.008Z,20.45
2019-05-11T05:17:09.753Z,21.25
2019-05-11T05:22:16.329Z,22.13
2019-05-11T05:27:22.296Z,18.65
2019-05-11T05:32:28.306Z,15.28
2019-05-11T05:37:34.300Z,15.28
2019-05-11T05:42:40.309Z,14.65
2019-05-11T05:47:46.488Z,13.72
2019-05-11T05:52:52.558Z,12.93
2019-05-11T05:57:58.863Z,13.62
2019-05-11T06:03:05.116Z,14.07
2019-05-11T06:08:11.191Z,10.80
2019-05-11T06:13:17.191Z,11.95
2019-05-11T06:18:23.270Z,10.10
2019-05-11T06:23:29.621Z,10.78
2019-05-11T06:28:35.583Z,10.13
2019-05-11T06:33:41.562Z,9.83
2019-05-11T06:38:47.608Z,9.20
2019-05-11T06:44:01.643Z,9.78
2019-05-11T06:49:01.316Z,11.12
2019-05-11T06:54:07.392Z,10.35
2019-05-11T06:59:13.357Z,9.10
2019-05-11T07:04:20.648Z,7.23
2019-05-11T07:09:26.634Z,9.10
2019-05-11T07:14:32.499Z,10.43
2019-05-11T07:19:38.574Z,8.98
2019-05-11T07:24:44.972Z,7.85
2019-05-11T07:29:52.127Z,8.55
2019-05-11T07:34:58.226Z,8.65
2019-05-11T07:40:05.416Z,7.62
2019-05-11T07:45:11.836Z,6.67
2019-05-11T07:50:18.320Z,7.58
2019-05-11T07:55:24.371Z,7.22
2019-05-11T08:00:30.340Z,6.75
2019-05-11T08:05:38.473Z,6.55
2019-05-11T08:10:44.218Z,6.78
2019-05-11T08:15:50.285Z,6.72
2019-05-11T08:20:58.224Z,6.40
2019-05-11T08:26:05.199Z,6.67
2019-05-11T08:31:11.271Z,6.47
2019-05-11T08:36:18.438Z,7.70
2019-05-11T08:41:24.551Z,7.13
2019-05-11T08:46:30.527Z,7.22
2019-05-11T08:51:38.555Z,7.83
2019-05-11T08:56:44.212Z,7.35
2019-05-11T09:01:50.689Z,9.15
2019-05-11T09:06:58.709Z,8.55
2019-05-11T09:17:09.928Z,8.48
2019-05-11T09:22:15.900Z,8.28
2019-05-11T09:27:22.381Z,7.65
2019-05-11T09:32:28.678Z,8.25
2019-05-11T09:37:34.836Z,7.58
2019-05-11T09:42:40.912Z,7.10
2019-05-11T09:47:47.938Z,6.62
2019-05-11T09:52:54.188Z,7.37
2019-05-11T09:58:00.260Z,6.87
2019-05-11T10:03:08.273Z,6.25
2019-05-11T10:08:14.152Z,5.87
2019-05-11T10:13:20.234Z,6.28
2019-05-11T10:18:28.190Z,5.50
2019-05-11T10:23:34.308Z,5.90
2019-05-11T10:28:40.894Z,6.58
2019-05-11T10:33:48.939Z,6.67
2019-05-11T10:38:54.576Z,5.87
2019-05-11T10:44:00.550Z,5.87
2019-05-11T10:49:08.032Z,5.10
2019-05-11T10:54:15.154Z,5.53
2019-05-11T10:59:21.149Z,5.42
2019-05-11T11:04:28.788Z,6.20
2019-05-11T11:09:34.825Z,5.28
2019-05-11T11:14:42.359Z,5.22
2019-05-11T11:19:48.748Z,5.20
2019-05-11T11:24:54.989Z,4.45
2019-05-11T11:30:01.498Z,4.72
2019-05-11T11:35:09.724Z,4.17
2019-05-11T11:40:17.692Z,4.67
2019-05-11T11:45:24.072Z,4.62
2019-05-11T11:50:29.946Z,4.28
2019-05-11T11:55:35.916Z,3.62
2019-05-11T12:00:41.781Z,3.83
2019-05-11T12:05:48.373Z,3.65
2019-05-11T12:10:54.549Z,3.77
2019-05-11T12:16:00.590Z,3.67
2019-05-11T12:21:08.046Z,3.37
2019-05-11T12:26:14.308Z,3.17
2019-05-11T12:31:21.093Z,3.33
2019-05-11T12:36:28.064Z,3.90
2019-05-11T12:41:34.220Z,3.97
2019-05-11T12:46:40.436Z,3.80
2019-05-11T12:51:48.594Z,3.12
2019-05-11T13:01:59.349Z,3.17
2019-05-11T13:07:05.454Z,2.90
2019-05-11T13:12:11.416Z,2.90
2019-05-11T13:17:18.634Z,2.47
2019-05-11T13:22:24.796Z,2.17
2019-05-11T13:27:30.768Z,1.90
2019-05-11T13:32:38.487Z,2.47
2019-05-11T13:42:50.215Z,5.08
2019-05-11T13:47:59.168Z,5.60
2019-05-11T13:53:03.825Z,5.72
2019-05-11T13:58:09.890Z,2.70
2019-05-11T14:03:18.235Z,15.35
2019-05-11T14:08:23.614Z,3.15
2019-05-11T14:13:29.731Z,6.10
2019-05-11T14:18:35.803Z,2.87
2019-05-11T14:23:41.768Z,3.95
2019-05-11T14:28:48.239Z,3.87
2019-05-11T14:33:57.915Z,3.30
2019-05-11T14:39:05.520Z,3.65
2019-05-11T14:44:11.509Z,4.62
2019-05-11T14:49:18.346Z,3.40
2019-05-11T14:54:24.458Z,4.40
2019-05-11T14:59:30.465Z,6.17
2019-05-11T15:04:37.897Z,6.03
2019-05-11T15:09:44.161Z,4.78
2019-05-11T15:14:50.142Z,7.33
2019-05-11T15:19:57.945Z,6.60
2019-05-11T15:25:04.527Z,6.20
2019-05-11T15:30:12.411Z,6.47
2019-05-11T15:35:19.102Z,9.03
2019-05-11T15:40:27.664Z,9.85
2019-05-11T15:45:33.301Z,10.63
2019-05-11T15:50:40.179Z,9.98
2019-05-11T15:55:46.767Z,9.97
2019-05-11T16:00:53.041Z,10.88
2019-05-11T16:05:59.114Z,10.23
2019-05-11T16:11:05.041Z,12.40
2019-05-11T16:16:11.051Z,11.95
2019-05-11T16:21:18.116Z,12.05
2019-05-11T16:26:24.326Z,12.13
2019-05-11T16:31:30.295Z,10.90
2019-05-11T16:36:39.002Z,10.28
2019-05-11T16:41:44.596Z,10.32
2019-05-11T16:46:50.962Z,10.53
2019-05-11T16:51:57.355Z,11.38
2019-05-11T16:57:04.573Z,11.38
2019-05-11T17:02:10.627Z,12.20
2019-05-11T17:07:17.623Z,13.10
2019-05-11T17:12:23.593Z,12.65
2019-05-11T17:17:29.900Z,18.82
2019-05-11T17:22:38.761Z,10.53
2019-05-11T17:27:43.763Z,10.72
2019-05-11T17:32:50.158Z,18.30
2019-05-11T17:37:56.721Z,15.05
2019-05-11T17:43:02.697Z,15.48
2019-05-11T17:48:08.681Z,20.45
2019-05-11T17:53:14.755Z,14.78
2019-05-11T17:58:20.813Z,19.77
2019-05-11T18:03:27.851Z,16.80
2019-05-11T18:08:34.081Z,12.67
2019-05-11T18:13:40.362Z,14.15
2019-05-11T18:18:48.335Z,10.63
2019-05-11T18:23:54.051Z,13.45
2019-05-11T18:29:00.016Z,10.10
2019-05-11T18:34:08.751Z,9.38
2019-05-11T18:39:15.067Z,11.93
2019-05-11T18:44:21.105Z,12.65
2019-05-11T18:49:28.557Z,23.85
2019-05-11T18:54:34.889Z,18.85
2019-05-11T18:59:40.758Z,14.07
2019-05-11T19:04:48.374Z,12.50
2019-05-11T19:09:54.241Z,11.33
2019-05-11T19:15:00.305Z,9.83
2019-05-11T19:20:09.965Z,10.50
2019-05-11T19:25:18.266Z,8.80
2019-05-11T19:30:23.649Z,11.93
2019-05-11T19:35:29.678Z,12.03
2019-05-11T19:40:38.402Z,10.25
2019-05-11T19:45:44.123Z,7.87
2019-05-11T19:51:03.874Z,6.72
2019-05-11T19:55:58.424Z,7.17
2019-05-11T20:01:04.600Z,8.50
2019-05-11T20:06:10.562Z,9.08
2019-05-11T20:11:18.546Z,8.15
2019-05-11T20:16:24.043Z,9.65
2019-05-11T20:21:30.152Z,10.50
2019-05-11T20:26:37.835Z,10.30
2019-05-11T20:31:43.800Z,7.85
2019-05-11T20:36:49.772Z,8.40
2019-05-11T20:41:58.083Z,8.58
2019-05-11T20:47:03.352Z,9.15
2019-05-11T20:52:09.423Z,7.42
2019-05-11T20:57:17.852Z,7.95
2019-05-11T21:02:23.005Z,7.92
2019-05-11T21:07:29.489Z,6.83
2019-05-11T21:12:37.845Z,6.77
2019-05-11T21:17:43.280Z,8.68
2019-05-11T21:22:49.861Z,10.70
2019-05-11T21:27:57.771Z,9.28
2019-05-11T21:33:03.440Z,7.60
2019-05-11T21:38:09.409Z,7.90
2019-05-11T21:43:15.383Z,8.80
2019-05-11T21:48:21.251Z,8.50
2019-05-11T21:53:28.794Z,7.40
2019-05-11T21:58:34.825Z,7.45
2019-05-11T22:03:40.800Z,7.10
2019-05-11T22:08:50.570Z,7.20
2019-05-11T22:13:57.764Z,7.00
2019-05-11T22:19:03.327Z,6.78
2019-05-11T22:24:09.304Z,7.28
2019-05-11T22:29:15.258Z,6.55
2019-05-11T22:34:21.241Z,7.60
2019-05-11T22:39:27.206Z,6.75
2019-05-11T22:44:35.795Z,7.83
2019-05-11T22:49:40.786Z,7.70
2019-05-11T22:54:48.481Z,7.65
2019-05-11T22:59:55.490Z,6.00
2019-05-11T23:05:01.472Z,6.85
2019-05-11T23:10:10.108Z,8.10
2019-05-11T23:15:17.709Z,6.30
2019-05-11T23:20:23.817Z,7.10
2019-05-11T23:25:29.855Z,6.95
2019-05-11T23:30:35.823Z,6.42
2019-05-11T23:35:42.025Z,6.08
2019-05-11T23:40:48.248Z,6.90
2019-05-11T23:45:54.563Z,7.00
2019-05-11T23:51:00.426Z,5.62
2019-05-11T23:56:06.397Z,6.03
